首页
METAR-TAF:

METAR-TAF

机场 :

烏日霍羅德國際機場

乌日霍罗德, 乌克兰

纬度: 48-38-05N, 经度: 022-15-53E, 海拔: 117米

当前天气观测

该预报发布于1小时和0分钟前的09:00 UTC
风速6节,风向北转西北,在西转西北东北之间变化
温度 19°C
湿度 43%
气压 1014 hPa
能见度10公里或以上
多云层高于4000英尺

METAR: UKLU 010900Z 34003MPS 300V050 9999 BKN040 19/06 Q1014 R10/290260 NOSIG

时间: 13:00 (10:00 UTC)

预报

该预报发布于1小时和57分钟前的08:03 UTC
预报有效从01日的 09点(UTC)到 01日的 18点(UTC)
风速8节,风向北转西北
能见度10公里或以上
短暂存在
从 01日的 09点(UTC)到 01日的 15点(UTC)
风速12节,风向北转东北,有时为21节阵风
散云层高于2000英尺
散云层高于4000英尺, 积雨云.
雷暴, 小雨

TAF: UKLU 010803Z 0109/0118 34004MPS 9999 NSC TEMPO 0109/0115 02006G11MPS -TSRA SCT020 SCT040CB

超过4000个机场的气象观测和天气预报(METAR&TAF报告)。

可查询的气象台以黄色和红色小点在地图上表示。

将鼠标移到小点上方,可查看气象台名称。

然后点击查看天气观测和预报。

如需切换地图:点击带黑十字的绿色按钮放大地图;点击带横线的绿色按钮缩小地图;或者点击绿色箭头查看邻近地区的地图。


METAR-TAF: